createdAt,value
2018-06-29T00:00:24.012Z,71.60
2018-06-29T00:03:57.428Z,71.70
2018-06-29T00:07:30.823Z,71.60
2018-06-29T00:11:04.245Z,71.40
2018-06-29T00:14:37.663Z,71.50
2018-06-29T00:18:11.067Z,71.50
2018-06-29T00:21:44.476Z,71.50
2018-06-29T00:25:17.852Z,71.70
2018-06-29T00:28:51.215Z,71.60
2018-06-29T00:32:24.585Z,71.50
2018-06-29T00:35:57.962Z,71.50
2018-06-29T00:39:31.378Z,71.90
2018-06-29T00:43:04.780Z,72.30
2018-06-29T00:46:38.200Z,72.30
2018-06-29T00:50:11.592Z,72.40
2018-06-29T00:53:44.979Z,72.50
2018-06-29T00:57:18.388Z,72.50
2018-06-29T01:00:51.776Z,72.50
2018-06-29T01:04:25.168Z,72.20
2018-06-29T01:07:58.563Z,72.30
2018-06-29T01:11:31.956Z,72.40
2018-06-29T01:15:05.569Z,72.60
2018-06-29T01:18:38.931Z,72.70
2018-06-29T01:22:12.320Z,72.30
2018-06-29T01:25:45.723Z,72.00
2018-06-29T01:29:19.128Z,71.80
2018-06-29T01:32:52.495Z,71.70
2018-06-29T01:39:58.987Z,70.60
2018-06-29T01:47:05.500Z,70.00
2018-06-29T01:50:39.151Z,70.00
2018-06-29T01:54:12.564Z,70.00
2018-06-29T01:57:46.019Z,70.30
2018-06-29T02:01:19.530Z,70.50
2018-06-29T02:08:26.048Z,70.70
2018-06-29T02:11:59.481Z,70.90
2018-06-29T02:15:32.872Z,71.00
2018-06-29T02:19:06.275Z,71.00
2018-06-29T02:22:39.668Z,71.20
2018-06-29T02:26:13.071Z,71.10
2018-06-29T02:29:46.461Z,71.00
2018-06-29T02:33:19.869Z,72.00
2018-06-29T02:36:53.260Z,73.00
2018-06-29T02:40:26.647Z,74.20
2018-06-29T02:47:33.154Z,75.00
2018-06-29T02:54:39.708Z,76.00
2018-06-29T02:58:13.104Z,77.00
2018-06-29T03:01:46.531Z,76.80
2018-06-29T03:05:19.957Z,77.10
2018-06-29T03:08:53.355Z,77.70
2018-06-29T03:12:26.727Z,77.50
2018-06-29T03:15:59.981Z,78.80
2018-06-29T03:19:33.224Z,78.10
2018-06-29T03:23:06.504Z,77.90
2018-06-29T03:26:39.985Z,78.30
2018-06-29T03:30:13.245Z,78.30
2018-06-29T03:33:46.504Z,78.50
2018-06-29T03:37:19.748Z,79.20
2018-06-29T03:40:53.195Z,79.60
2018-06-29T03:44:26.467Z,80.00
2018-06-29T03:47:59.735Z,80.10
2018-06-29T03:51:32.960Z,80.10
2018-06-29T03:55:06.206Z,80.00
2018-06-29T03:58:39.468Z,80.20
2018-06-29T04:02:12.716Z,80.10
2018-06-29T04:05:45.957Z,80.00
2018-06-29T04:09:19.216Z,79.80
2018-06-29T04:12:52.489Z,79.80
2018-06-29T04:16:25.703Z,79.50
2018-06-29T04:19:58.989Z,79.30
2018-06-29T04:23:32.265Z,79.60
2018-06-29T04:27:05.503Z,79.40
2018-06-29T04:30:38.899Z,79.40
2018-06-29T04:34:12.139Z,79.20
2018-06-29T04:37:45.392Z,79.30
2018-06-29T04:41:18.616Z,79.10
2018-06-29T04:44:51.869Z,79.10
2018-06-29T04:51:58.117Z,78.80
2018-06-29T04:55:31.355Z,79.10
2018-06-29T04:59:04.633Z,79.00
2018-06-29T05:02:37.883Z,78.90
2018-06-29T05:06:11.170Z,78.80
2018-06-29T05:13:17.435Z,79.00
2018-06-29T05:16:50.692Z,79.00
2018-06-29T05:20:23.965Z,78.70
2018-06-29T05:27:30.260Z,78.20
2018-06-29T05:34:36.475Z,77.30
2018-06-29T05:38:09.749Z,77.00
2018-06-29T05:45:16.008Z,77.40
2018-06-29T05:48:49.250Z,77.20
2018-06-29T05:55:55.473Z,76.70
2018-06-29T05:59:28.743Z,76.50
2018-06-29T06:06:35.013Z,75.90
2018-06-29T06:10:08.349Z,75.60
2018-06-29T06:13:41.548Z,75.30
2018-06-29T06:17:14.924Z,75.00
2018-06-29T06:20:48.188Z,74.60
2018-06-29T06:24:21.434Z,74.40
2018-06-29T06:38:33.661Z,74.00
2018-06-29T06:42:06.930Z,73.80
2018-06-29T06:45:40.194Z,74.00
2018-06-29T06:49:13.453Z,73.50
2018-06-29T06:52:46.780Z,73.20
2018-06-29T06:56:20.027Z,72.70
2018-06-29T06:59:53.267Z,72.30
2018-06-29T07:03:26.516Z,72.40
2018-06-29T07:10:32.772Z,71.50
2018-06-29T07:14:06.037Z,71.00
2018-06-29T07:17:39.291Z,70.90
2018-06-29T07:21:12.544Z,70.70
2018-06-29T07:24:45.818Z,69.70
2018-06-29T07:28:19.076Z,69.60
2018-06-29T07:31:52.313Z,69.20
2018-06-29T07:42:31.584Z,67.60
2018-06-29T07:46:04.888Z,67.00
2018-06-29T07:49:38.135Z,66.00
2018-06-29T07:53:11.387Z,65.30
2018-06-29T07:56:44.641Z,65.00
2018-06-29T08:00:17.868Z,64.00
2018-06-29T08:03:51.184Z,63.30
2018-06-29T08:07:24.524Z,61.60
2018-06-29T08:10:57.864Z,61.00
2018-06-29T08:14:31.125Z,60.80
2018-06-29T08:18:04.387Z,60.20
2018-06-29T08:21:38.504Z,60.20
2018-06-29T08:25:14.599Z,60.00
2018-06-29T08:28:49.407Z,59.40
2018-06-29T08:32:22.891Z,59.50
2018-06-29T08:35:56.573Z,59.30
2018-06-29T08:39:29.801Z,59.30
2018-06-29T08:43:04.020Z,59.10
2018-06-29T08:46:37.416Z,58.40
2018-06-29T08:50:11.501Z,57.70
2018-06-29T08:53:45.025Z,57.60
2018-06-29T08:57:19.728Z,57.30
2018-06-29T09:00:53.384Z,57.10
2018-06-29T09:04:26.683Z,57.10
2018-06-29T09:08:00.289Z,56.70
2018-06-29T09:11:33.616Z,56.40
2018-06-29T09:15:06.981Z,55.80
2018-06-29T09:18:40.246Z,55.00
2018-06-29T09:22:13.517Z,54.20
2018-06-29T09:25:47.134Z,54.20
2018-06-29T09:29:20.483Z,54.10
2018-06-29T09:32:53.953Z,53.70
2018-06-29T09:36:27.343Z,53.60
2018-06-29T09:40:00.758Z,53.10
2018-06-29T09:47:07.112Z,52.10
2018-06-29T09:50:41.467Z,52.00
2018-06-29T09:54:14.941Z,52.60
2018-06-29T09:57:48.196Z,51.70
2018-06-29T10:01:21.485Z,51.20
2018-06-29T10:04:54.680Z,50.90
2018-06-29T10:08:27.904Z,50.40
2018-06-29T10:22:40.122Z,50.30
2018-06-29T10:26:13.363Z,49.90
2018-06-29T10:29:46.609Z,49.60
2018-06-29T10:33:19.835Z,49.70
2018-06-29T10:36:53.223Z,49.50
2018-06-29T10:43:59.415Z,48.90
2018-06-29T10:47:32.670Z,48.70
2018-06-29T10:54:38.996Z,48.60
2018-06-29T10:58:12.251Z,48.40
2018-06-29T11:01:45.494Z,47.60
2018-06-29T11:05:18.748Z,47.00
2018-06-29T11:08:52.057Z,46.20
2018-06-29T11:12:25.296Z,45.60
2018-06-29T11:15:58.563Z,45.30
2018-06-29T11:19:31.791Z,45.00
2018-06-29T11:23:05.020Z,44.70
2018-06-29T11:26:38.296Z,44.40
2018-06-29T11:30:11.534Z,43.20
2018-06-29T11:33:44.786Z,42.80
2018-06-29T11:37:18.299Z,42.30
2018-06-29T11:40:51.587Z,41.90
2018-06-29T11:44:24.787Z,42.10
2018-06-29T11:47:58.020Z,41.50
2018-06-29T11:51:31.285Z,41.50
2018-06-29T11:55:04.530Z,41.30
2018-06-29T11:58:37.859Z,41.40
2018-06-29T12:02:11.099Z,41.30
2018-06-29T12:05:44.355Z,41.50
2018-06-29T12:09:17.599Z,41.30
2018-06-29T12:12:50.848Z,42.00
2018-06-29T12:16:24.171Z,41.20
2018-06-29T12:19:57.448Z,41.40
2018-06-29T12:23:30.709Z,42.00
2018-06-29T12:27:03.960Z,41.50
2018-06-29T12:30:37.250Z,41.70
2018-06-29T12:34:10.544Z,41.80
2018-06-29T12:37:43.761Z,42.00
2018-06-29T12:41:17.012Z,41.70
2018-06-29T12:44:50.270Z,41.50
2018-06-29T12:48:23.548Z,41.30
2018-06-29T12:51:56.805Z,40.20
2018-06-29T12:55:30.228Z,40.50
2018-06-29T12:59:03.523Z,40.10
2018-06-29T13:02:36.785Z,39.10
2018-06-29T13:06:10.097Z,39.20
2018-06-29T13:09:43.367Z,38.50
2018-06-29T13:13:16.867Z,38.40
2018-06-29T13:16:50.112Z,38.70
2018-06-29T13:20:23.367Z,38.90
2018-06-29T13:23:56.893Z,38.60
2018-06-29T13:31:03.318Z,38.90
2018-06-29T13:34:36.808Z,38.80
2018-06-29T13:38:10.093Z,39.00
2018-06-29T13:41:43.361Z,38.80
2018-06-29T13:45:16.634Z,38.70
2018-06-29T13:48:50.076Z,38.60
2018-06-29T13:52:23.333Z,38.40
2018-06-29T13:55:56.800Z,37.90
2018-06-29T14:03:03.102Z,37.40
2018-06-29T14:06:36.393Z,37.20
2018-06-29T14:10:09.716Z,37.40
2018-06-29T14:13:43.094Z,37.30
2018-06-29T14:17:16.382Z,37.50
2018-06-29T14:20:49.668Z,37.30
2018-06-29T14:24:22.960Z,36.90
2018-06-29T14:27:56.225Z,36.90
2018-06-29T14:31:29.844Z,35.90
2018-06-29T14:35:03.182Z,35.00
2018-06-29T14:38:36.597Z,33.80
2018-06-29T14:42:09.877Z,33.00
2018-06-29T14:45:43.136Z,33.20
2018-06-29T14:49:16.707Z,32.60
2018-06-29T14:52:50.033Z,31.90
2018-06-29T14:56:23.432Z,31.60
2018-06-29T15:10:41.396Z,31.40
2018-06-29T15:14:14.649Z,31.30
2018-06-29T15:17:47.968Z,31.60
2018-06-29T15:21:21.245Z,32.50
2018-06-29T15:24:54.495Z,32.00
2018-06-29T15:28:27.807Z,31.50
2018-06-29T15:32:01.073Z,30.90
2018-06-29T15:35:34.343Z,30.90
2018-06-29T15:39:10.357Z,31.50
2018-06-29T15:42:43.608Z,30.60
2018-06-29T15:46:16.856Z,30.40
2018-06-29T15:49:50.104Z,29.70
2018-06-29T15:53:23.360Z,29.50
2018-06-29T15:56:56.616Z,29.60
2018-06-29T16:00:29.904Z,29.30
2018-06-29T16:04:03.247Z,29.00
2018-06-29T16:07:36.851Z,28.80
2018-06-29T16:11:10.084Z,28.60
2018-06-29T16:14:43.332Z,28.50
2018-06-29T16:18:16.609Z,28.70
2018-06-29T16:21:49.885Z,29.20
2018-06-29T16:25:23.153Z,29.30
2018-06-29T16:28:56.392Z,29.70
2018-06-29T16:32:29.639Z,30.00
2018-06-29T16:36:02.935Z,30.70
2018-06-29T16:39:36.455Z,31.30
2018-06-29T16:43:09.699Z,32.00
2018-06-29T16:46:42.951Z,32.50
2018-06-29T16:50:16.403Z,32.80
2018-06-29T16:53:49.789Z,34.10
2018-06-29T16:57:23.088Z,33.90
2018-06-29T17:00:56.618Z,34.20
2018-06-29T17:04:29.868Z,34.70
2018-06-29T17:08:03.947Z,35.10
2018-06-29T17:11:37.206Z,35.30
2018-06-29T17:15:10.463Z,35.70
2018-06-29T17:18:43.811Z,35.70
2018-06-29T17:25:49.988Z,35.90
2018-06-29T17:29:23.260Z,36.00
2018-06-29T17:32:56.494Z,36.30
2018-06-29T17:36:29.751Z,36.40
2018-06-29T17:40:03.194Z,36.60
2018-06-29T17:43:36.443Z,36.60
2018-06-29T17:47:09.700Z,36.60
2018-06-29T17:50:42.956Z,36.90
2018-06-29T17:54:16.204Z,36.70
2018-06-29T17:57:49.552Z,36.90
2018-06-29T18:01:22.800Z,37.20
2018-06-29T18:04:56.058Z,37.50
2018-06-29T18:12:02.340Z,37.60
2018-06-29T18:15:35.888Z,37.50
2018-06-29T18:22:42.952Z,37.90
2018-06-29T18:26:16.200Z,38.10
2018-06-29T18:29:49.461Z,38.50
2018-06-29T18:33:22.707Z,38.60
2018-06-29T18:36:55.935Z,38.80
2018-06-29T18:40:29.207Z,38.90
2018-06-29T18:44:02.452Z,39.10
2018-06-29T18:47:35.704Z,38.90
2018-06-29T18:51:08.994Z,39.20
2018-06-29T18:54:42.238Z,39.20
2018-06-29T18:58:15.505Z,39.80
2018-06-29T19:01:48.787Z,39.80
2018-06-29T19:05:22.408Z,40.10
2018-06-29T19:08:55.641Z,40.60
2018-06-29T19:12:28.928Z,40.70
2018-06-29T19:16:02.200Z,40.90
2018-06-29T19:19:35.448Z,41.20
2018-06-29T19:23:08.811Z,41.70
2018-06-29T19:26:42.098Z,41.60
2018-06-29T19:30:15.417Z,41.50
2018-06-29T19:33:48.649Z,41.90
2018-06-29T19:37:21.945Z,42.00
2018-06-29T19:40:55.212Z,42.30
2018-06-29T19:44:28.527Z,43.10
2018-06-29T19:48:02.284Z,43.60
2018-06-29T19:51:35.570Z,44.60
2018-06-29T19:55:08.824Z,44.50
2018-06-29T19:58:42.239Z,44.90
2018-06-29T20:02:15.456Z,45.40
2018-06-29T20:05:48.700Z,45.60
2018-06-29T20:09:21.942Z,46.00
2018-06-29T20:12:55.213Z,46.40
2018-06-29T20:16:29.507Z,46.70
2018-06-29T20:20:02.788Z,47.20
2018-06-29T20:23:36.107Z,47.50
2018-06-29T20:27:09.371Z,47.80
2018-06-29T20:30:42.648Z,48.10
2018-06-29T20:34:15.931Z,48.40
2018-06-29T20:37:49.183Z,48.70
2018-06-29T20:41:22.447Z,48.90
2018-06-29T20:44:55.716Z,49.10
2018-06-29T20:48:29.021Z,49.30
2018-06-29T20:52:02.284Z,49.40
2018-06-29T20:55:35.559Z,49.60
2018-06-29T20:59:08.810Z,49.90
2018-06-29T21:02:42.080Z,50.10
2018-06-29T21:06:15.792Z,50.30
2018-06-29T21:09:49.116Z,50.70
2018-06-29T21:13:22.348Z,50.80
2018-06-29T21:16:55.636Z,50.90
2018-06-29T21:20:28.955Z,51.70
2018-06-29T21:27:35.228Z,52.60
2018-06-29T21:31:08.539Z,52.80
2018-06-29T21:34:41.811Z,53.30
2018-06-29T21:38:15.125Z,53.50
2018-06-29T21:41:48.385Z,53.80
2018-06-29T21:45:21.694Z,54.20
2018-06-29T21:48:54.960Z,54.30
2018-06-29T21:52:28.256Z,54.50
2018-06-29T21:56:01.517Z,54.60
2018-06-29T21:59:34.788Z,54.80
2018-06-29T22:03:08.156Z,54.80
2018-06-29T22:06:41.459Z,54.80
2018-06-29T22:10:14.760Z,55.10
2018-06-29T22:20:53.995Z,57.00
2018-06-29T22:24:27.240Z,57.10
2018-06-29T22:28:00.540Z,57.40
2018-06-29T22:31:33.762Z,57.80
2018-06-29T22:35:07.008Z,58.20
2018-06-29T22:38:40.259Z,58.10
2018-06-29T22:42:13.489Z,58.50
2018-06-29T22:45:46.760Z,58.80
2018-06-29T22:49:20.037Z,59.00
2018-06-29T22:52:53.320Z,59.50
2018-06-29T22:56:26.575Z,59.90
2018-06-29T22:59:59.840Z,60.30
2018-06-29T23:03:38.517Z,60.60
2018-06-29T23:07:11.766Z,60.80
2018-06-29T23:10:45.005Z,61.00
2018-06-29T23:14:18.286Z,61.20
2018-06-29T23:17:51.525Z,61.60
2018-06-29T23:21:24.816Z,62.10
2018-06-29T23:24:58.073Z,62.50
2018-06-29T23:32:04.338Z,63.10
2018-06-29T23:35:37.637Z,63.30
2018-06-29T23:39:11.604Z,63.60
2018-06-29T23:42:44.856Z,64.00
2018-06-29T23:46:18.096Z,64.20
2018-06-29T23:49:51.468Z,64.40
2018-06-29T23:53:24.704Z,64.50
2018-06-29T23:56:57.999Z,64.60
